Oerle, Netherlands
Current Conditions -  °F | °C
As of 4:05 PM on Wednesday 26 Nov 2014 (Local Time) from EHEH Reporting Station
Drizzle Drizzle  
Wind Chill: 40°   Ceiling: 1700
Heat Index: 45°   Visibility: 4mi
Dew Point: 39°   Wind: 9mph
Humidity: 81%   Direction: 120°ESE
Pressure: 29.88"   Gusts: NA
Location:  51.42°N, 5.37°E
Report Text: EHEH 261505Z AUTO 12008KT 7000 DZ OVC017 07/04 Q1012 WHT 12008KT 6000 DZ OVC016
Loading
Personal Weather Stations






























Interactive Weather Map New forecast layout! Learn more

10-Day Weather Forecast

Advertisements
Track Severe Weather on mobile